Rorichmoor — V2BV7 — position and weather

sailwx.info

Track history (hours):
 
Tides and Currents Weather Stations Pressure Air Temp Water Temp Dewpoint Dewpoint Depression Visibility Wind Speed Wind Dir Waves Ship Positions

Rorichmoor

Last reported at 2014-Sep-18 15:31 UTC. Time now 2014-Sep-18 15:38 UTC.
Position N 51°54' E 004°27'.

Length 80 m; draft 3.6 m.

Type: Cargo ship. MMSI: 304938000.

Date/timePositionNaut miles runAvg speedWind from/ knotsBaromVisibWave heightAir tempDewpointWater temp
2014-Sep-18 15:31N 51°54' E 004°27'0 0.2
2014-Sep-18 14:31N 51°54' E 004°27'0 0.0
2014-Sep-18 13:31N 51°54' E 004°27'0 0.0
2014-Sep-18 12:31N 51°54' E 004°27'0 0.0
2014-Sep-18 11:31N 51°54' E 004°27'0 0.0
2014-Sep-18 10:31N 51°54' E 004°27'0 0.0
2014-Sep-18 09:31N 51°54' E 004°27'0 0.0
2014-Sep-18 08:31N 51°54' E 004°27'0 0.0
2014-Sep-18 07:31N 51°54' E 004°27'0 0.0
2014-Sep-18 06:31N 51°54' E 004°27'0 0.0
2014-Sep-18 05:31N 51°54' E 004°27'0 0.0
2014-Sep-18 04:31N 51°54' E 004°27'0 0.0
2014-Sep-18 03:31N 51°54' E 004°27'0 0.0
2014-Sep-18 02:31N 51°54' E 004°27'0 0.0
2014-Sep-18 01:31N 51°54' E 004°27'0 0.0
2014-Sep-18 00:31N 51°54' E 004°27'0 0.0
2014-Sep-17 23:31N 51°54' E 004°27'0 0.0
2014-Sep-17 22:31N 51°54' E 004°27'0 0.0
2014-Sep-17 21:31N 51°54' E 004°27'0 0.0
2014-Sep-17 20:31N 51°54' E 004°27'0 0.0
2014-Sep-17 19:31N 51°54' E 004°27'0 0.0
2014-Sep-17 18:28N 51°54' E 004°27'2 2.6
2014-Sep-17 17:33N 51°54' E 004°23'8 7.7
2014-Sep-17 16:33N 51°56' E 004°11'7 7.2
2014-Sep-17 15:33N 51°60' E 004°01'27 8.6
2014-Sep-17 12:24N 51°54' E 003°18'66 9.6
2014-Sep-17 05:32N 51°12' E 001°56'58 9.0
2014-Sep-16 23:05N 50°28' E 000°56'5 8.6
2014-Sep-16 22:33N 50°27' E 000°49'8 8.5
2014-Sep-16 21:33N 50°24' E 000°36'8 8.2
2014-Sep-16 20:33N 50°22' E 000°24'9 8.2
2014-Sep-16 19:31N 50°20' E 000°11'12110.0
2014-Sep-16 07:24N 49°49' W 002°51'  
Track history (hours):
 
Tides and Currents Weather Stations Pressure Air Temp Water Temp Dewpoint Dewpoint Depression Visibility Wind Speed Wind Dir Waves Ship Positions

Rorichmoor

Last reported at 2014-Sep-18 15:31 UTC. Time now 2014-Sep-18 15:38 UTC.
Position N 51°54' E 004°27'.

Length 80 m; draft 3.6 m.

Type: Cargo ship. MMSI: 304938000.

Date/timePositionNaut miles runAvg speedWind from/ knotsBaromVisibWave heightAir tempDewpointWater temp
2014-Sep-18 15:31N 51°54' E 004°27'0 0.2
2014-Sep-18 14:31N 51°54' E 004°27'0 0.0
2014-Sep-18 13:31N 51°54' E 004°27'0 0.0
2014-Sep-18 12:31N 51°54' E 004°27'0 0.0
2014-Sep-18 11:31N 51°54' E 004°27'0 0.0
2014-Sep-18 10:31N 51°54' E 004°27'0 0.0
2014-Sep-18 09:31N 51°54' E 004°27'0 0.0
2014-Sep-18 08:31N 51°54' E 004°27'0 0.0
2014-Sep-18 07:31N 51°54' E 004°27'0 0.0
2014-Sep-18 06:31N 51°54' E 004°27'0 0.0
2014-Sep-18 05:31N 51°54' E 004°27'0 0.0
2014-Sep-18 04:31N 51°54' E 004°27'0 0.0
2014-Sep-18 03:31N 51°54' E 004°27'0 0.0
2014-Sep-18 02:31N 51°54' E 004°27'0 0.0
2014-Sep-18 01:31N 51°54' E 004°27'0 0.0
2014-Sep-18 00:31N 51°54' E 004°27'0 0.0
2014-Sep-17 23:31N 51°54' E 004°27'0 0.0
2014-Sep-17 22:31N 51°54' E 004°27'0 0.0
2014-Sep-17 21:31N 51°54' E 004°27'0 0.0
2014-Sep-17 20:31N 51°54' E 004°27'0 0.0
2014-Sep-17 19:31N 51°54' E 004°27'0 0.0
2014-Sep-17 18:28N 51°54' E 004°27'2 2.6
2014-Sep-17 17:33N 51°54' E 004°23'8 7.7
2014-Sep-17 16:33N 51°56' E 004°11'7 7.2
2014-Sep-17 15:33N 51°60' E 004°01'27 8.6
2014-Sep-17 12:24N 51°54' E 003°18'66 9.6
2014-Sep-17 05:32N 51°12' E 001°56'58 9.0
2014-Sep-16 23:05N 50°28' E 000°56'5 8.6
2014-Sep-16 22:33N 50°27' E 000°49'8 8.5
2014-Sep-16 21:33N 50°24' E 000°36'8 8.2
2014-Sep-16 20:33N 50°22' E 000°24'9 8.2
2014-Sep-16 19:31N 50°20' E 000°11'12110.0
2014-Sep-16 07:24N 49°49' W 002°51'  

Dump ship's entire track history